Time;durP1;ratioP1;P1;durP2;ratioP2;P2;SDS_P1;SDS_P2;PMS_P1;PMS_P2;Temp;Humidity;BMP_temperature;BMP_pressure;BME280_temperature;BME280_humidity;BME280_pressure;Samples;Min_cycle;Max_cycle;Signal;HPM_P1;HPM_P2
2023/08/31 00:02:36;;;;;;;3.97;2.90;;;;;11.00;100394.00;;;;10447047;28;20205;-78
2023/08/31 00:07:38;;;;;;;5.20;2.77;;;;;11.00;100399.00;;;;10455855;28;20742;-77
2023/08/31 00:12:39;;;;;;;3.77;2.67;;;;;11.10;100397.00;;;;10453024;27;20258;-77
2023/08/31 00:17:41;;;;;;;5.37;3.40;;;;;11.10;100403.00;;;;10425669;27;20200;-78
2023/08/31 00:22:42;;;;;;;6.30;3.80;;;;;11.10;100396.00;;;;10425939;28;21813;-78
2023/08/31 00:27:48;;;;;;;5.13;3.57;;;;;11.10;100380.00;;;;10413571;27;20220;-77
2023/08/31 00:32:50;;;;;;;9.43;4.30;;;;;11.20;100392.00;;;;10426975;27;20223;-77
2023/08/31 00:37:58;;;;;;;10.10;3.93;;;;;11.20;100393.00;;;;10414297;27;20207;-78
2023/08/31 00:42:59;;;;;;;4.97;4.10;;;;;11.20;100391.00;;;;10452240;27;20201;-77
2023/08/31 00:48:01;;;;;;;10.97;4.20;;;;;11.30;100390.00;;;;10417814;28;20219;-78
2023/08/31 00:53:04;;;;;;;6.10;4.30;;;;;11.20;100389.00;;;;10412501;27;20213;-78
2023/08/31 00:58:07;;;;;;;6.83;4.47;;;;;11.20;100386.00;;;;10414079;27;20204;-77
2023/08/31 01:03:13;;;;;;;6.60;4.27;;;;;11.20;100393.00;;;;10438521;27;20212;-78
2023/08/31 01:08:40;;;;;;;7.13;4.47;;;;;11.20;100396.00;;;;10459678;27;20228;-79
2023/08/31 01:13:46;;;;;;;8.33;4.90;;;;;11.20;100397.00;;;;10445467;27;20694;-80
2023/08/31 01:18:48;;;;;;;6.60;5.00;;;;;11.20;100394.00;;;;10441069;27;20667;-80
2023/08/31 01:23:54;;;;;;;6.80;4.63;;;;;11.20;100399.00;;;;10435045;27;20208;-79
2023/08/31 01:28:56;;;;;;;9.67;5.27;;;;;11.10;100403.00;;;;10442293;27;20729;-80
2023/08/31 01:33:58;;;;;;;8.33;5.57;;;;;11.10;100401.00;;;;10443032;27;21430;-79
2023/08/31 01:39:06;;;;;;;9.30;5.77;;;;;11.20;100406.00;;;;10442551;27;20283;-79
2023/08/31 01:44:09;;;;;;;6.80;5.20;;;;;11.10;100406.00;;;;10410054;27;20261;-79
2023/08/31 01:49:10;;;;;;;11.07;5.73;;;;;11.10;100410.00;;;;10442931;27;20796;-78
2023/08/31 01:54:12;;;;;;;8.97;5.67;;;;;11.10;100404.00;;;;10458494;27;20200;-79
2023/08/31 01:59:13;;;;;;;8.67;5.97;;;;;11.10;100408.00;;;;10458868;27;20204;-79
2023/08/31 02:04:15;;;;;;;12.20;6.67;;;;;11.10;100416.00;;;;10438542;27;20685;-79
2023/08/31 02:09:16;;;;;;;11.53;6.70;;;;;11.10;100412.00;;;;10443213;27;20220;-79
2023/08/31 02:14:18;;;;;;;11.07;6.83;;;;;11.10;100415.00;;;;10448314;27;20210;-79
2023/08/31 02:19:19;;;;;;;11.23;6.27;;;;;11.10;100425.00;;;;10425922;28;20206;-78
2023/08/31 02:24:21;;;;;;;12.03;7.03;;;;;11.10;100433.00;;;;10422582;27;20471;-80
2023/08/31 02:29:22;;;;;;;8.37;6.07;;;;;11.10;100424.00;;;;10440436;27;22202;-79
2023/08/31 02:34:24;;;;;;;9.17;6.10;;;;;11.10;100419.00;;;;10442275;27;20512;-79
2023/08/31 02:39:25;;;;;;;9.00;6.17;;;;;11.10;100417.00;;;;10440049;27;20189;-78
2023/08/31 02:44:27;;;;;;;10.53;5.00;;;;;11.10;100417.00;;;;10405131;27;21006;-79
2023/08/31 02:49:28;;;;;;;11.50;5.30;;;;;11.10;100418.00;;;;10457001;27;20260;-79
2023/08/31 02:54:31;;;;;;;9.17;5.97;;;;;11.10;100413.00;;;;10442598;27;20212;-79
2023/08/31 02:59:35;;;;;;;8.47;5.90;;;;;11.20;100419.00;;;;10457611;27;20196;-80
2023/08/31 03:04:37;;;;;;;8.17;4.97;;;;;11.30;100425.00;;;;10430828;27;20204;-79
2023/08/31 03:09:38;;;;;;;7.20;5.20;;;;;11.30;100415.00;;;;10434667;27;20239;-79
2023/08/31 03:14:40;;;;;;;7.93;5.07;;;;;11.30;100404.00;;;;10420299;27;20322;-80
2023/08/31 03:19:41;;;;;;;11.03;5.37;;;;;11.40;100402.00;;;;10420175;27;20696;-81
2023/08/31 03:24:43;;;;;;;7.47;5.13;;;;;11.50;100408.00;;;;10403252;27;20261;-79
2023/08/31 03:29:44;;;;;;;10.63;5.00;;;;;11.60;100416.00;;;;10419600;27;20551;-80
2023/08/31 03:34:46;;;;;;;10.53;5.43;;;;;11.60;100417.00;;;;10435905;27;20211;-79
2023/08/31 03:39:48;;;;;;;7.60;4.70;;;;;11.60;100411.00;;;;10455955;27;20212;-79
2023/08/31 03:44:49;;;;;;;8.60;5.20;;;;;11.60;100417.00;;;;10455199;27;20478;-79
2023/08/31 03:49:52;;;;;;;9.40;5.07;;;;;11.50;100418.00;;;;10437526;27;20221;-79
2023/08/31 03:54:53;;;;;;;11.73;5.53;;;;;11.50;100421.00;;;;10435108;27;20300;-80
2023/08/31 03:59:55;;;;;;;9.10;4.80;;;;;11.40;100420.00;;;;10438056;27;20220;-79
2023/08/31 04:04:57;;;;;;;7.90;4.50;;;;;11.30;100416.00;;;;10437070;27;20208;-80
2023/08/31 04:09:59;;;;;;;8.37;5.40;;;;;11.30;100429.00;;;;10437494;28;20225;-79
2023/08/31 04:15:00;;;;;;;10.00;5.43;;;;;11.30;100433.00;;;;10436673;27;20204;-79
2023/08/31 04:20:05;;;;;;;9.07;5.60;;;;;11.30;100436.00;;;;10456389;27;20283;-80
2023/08/31 04:25:07;;;;;;;6.83;5.40;;;;;11.30;100443.00;;;;10437202;27;21336;-79
2023/08/31 04:30:08;;;;;;;9.57;6.10;;;;;11.30;100448.00;;;;10434469;27;20216;-80
2023/08/31 04:35:10;;;;;;;8.90;5.77;;;;;11.30;100445.00;;;;10391552;27;20213;-80
2023/08/31 04:40:12;;;;;;;10.53;6.60;;;;;11.30;100453.00;;;;10420364;27;20196;-80
2023/08/31 04:45:13;;;;;;;9.07;6.57;;;;;11.30;100459.00;;;;10436686;27;21336;-79
2023/08/31 04:50:15;;;;;;;9.50;7.17;;;;;11.20;100461.00;;;;10452151;27;20229;-79
2023/08/31 04:55:16;;;;;;;11.67;6.63;;;;;11.30;100456.00;;;;10455525;27;21327;-81
2023/08/31 05:00:18;;;;;;;8.50;6.33;;;;;11.30;100452.00;;;;10435516;27;20530;-80
2023/08/31 05:05:19;;;;;;;10.67;6.60;;;;;11.30;100458.00;;;;10452230;27;20277;-79
2023/08/31 05:10:21;;;;;;;12.10;6.60;;;;;11.40;100460.00;;;;10439022;27;20221;-80
2023/08/31 05:15:23;;;;;;;12.03;6.63;;;;;11.50;100464.00;;;;10422375;27;20273;-80
2023/08/31 05:20:24;;;;;;;8.10;5.73;;;;;11.60;100472.00;;;;10450282;27;20202;-79
2023/08/31 05:25:25;;;;;;;11.93;6.67;;;;;11.70;100476.00;;;;10460113;27;20212;-80
2023/08/31 05:30:29;;;;;;;10.73;6.80;;;;;11.90;100476.00;;;;10424381;27;20273;-79
2023/08/31 05:35:30;;;;;;;14.33;6.53;;;;;12.00;100478.00;;;;10454721;27;20207;-79
2023/08/31 05:40:32;;;;;;;10.63;6.20;;;;;12.30;100476.00;;;;10425503;28;20197;-79
2023/08/31 05:45:34;;;;;;;13.73;6.30;;;;;12.40;100476.00;;;;10424446;27;20215;-80
2023/08/31 05:50:38;;;;;;;12.67;6.23;;;;;12.60;100474.00;;;;10453676;27;20231;-80
2023/08/31 05:55:39;;;;;;;15.63;6.50;;;;;12.80;100473.00;;;;10454859;27;20212;-80
2023/08/31 06:00:40;;;;;;;12.50;5.80;;;;;12.90;100483.00;;;;10436830;27;20208;-79
2023/08/31 06:05:42;;;;;;;10.10;5.80;;;;;13.10;100488.00;;;;10456804;27;20249;-80
2023/08/31 06:10:43;;;;;;;15.40;6.20;;;;;13.30;100494.00;;;;10438462;27;20208;-79
2023/08/31 06:15:44;;;;;;;14.53;5.50;;;;;13.50;100501.00;;;;10426717;28;20204;-81
2023/08/31 06:20:48;;;;;;;12.30;6.30;;;;;13.80;100500.00;;;;10457212;28;20211;-79
2023/08/31 06:25:49;;;;;;;14.13;5.57;;;;;14.20;100504.00;;;;10437096;28;20439;-80
2023/08/31 06:30:51;;;;;;;15.88;5.10;;;;;14.80;100514.00;;;;10420934;27;20214;-79
2023/08/31 06:35:52;;;;;;;13.18;5.50;;;;;15.10;100524.00;;;;10441582;27;21869;-82
2023/08/31 06:40:58;;;;;;;9.98;4.70;;;;;15.30;100531.00;;;;10424401;28;20814;-77
2023/08/31 06:46:00;;;;;;;13.65;4.72;;;;;15.80;100527.00;;;;10442880;27;20220;-79
2023/08/31 06:51:19;;;;;;;7.53;4.10;;;;;16.20;100529.00;;;;10467702;27;20558;-79
2023/08/31 06:56:22;;;;;;;11.00;4.28;;;;;16.50;100540.00;;;;10445585;27;20327;-79
2023/08/31 07:01:23;;;;;;;9.35;3.70;;;;;16.60;100533.00;;;;10435064;27;20229;-80
2023/08/31 07:06:25;;;;;;;15.60;4.50;;;;;16.90;100530.00;;;;10436393;27;20953;-80
2023/08/31 07:11:27;;;;;;;13.95;3.70;;;;;17.20;100528.00;;;;10460740;27;20399;-80
2023/08/31 07:16:28;;;;;;;12.57;3.92;;;;;17.40;100537.00;;;;10436843;27;20311;-81
2023/08/31 07:21:30;;;;;;;10.82;3.80;;;;;17.00;100541.00;;;;10455558;27;20310;-80
2023/08/31 07:26:31;;;;;;;8.07;3.60;;;;;16.80;100556.00;;;;10446003;27;21519;-79
2023/08/31 07:31:33;;;;;;;13.98;3.90;;;;;16.90;100556.00;;;;10405248;27;20211;-79
2023/08/31 07:36:34;;;;;;;11.05;4.28;;;;;16.90;100562.00;;;;10450795;27;20273;-79
2023/08/31 07:41:36;;;;;;;9.77;4.15;;;;;17.00;100569.00;;;;10449924;27;20204;-79
2023/08/31 07:46:39;;;;;;;10.55;4.07;;;;;17.20;100562.00;;;;10441281;27;20231;-80
2023/08/31 07:51:41;;;;;;;10.68;3.72;;;;;17.30;100567.00;;;;10438123;27;20205;-79
2023/08/31 07:56:43;;;;;;;10.15;4.15;;;;;17.50;100577.00;;;;10417006;27;20216;-78
2023/08/31 08:01:46;;;;;;;9.25;3.90;;;;;17.90;100577.00;;;;10437114;27;20530;-79
2023/08/31 08:06:50;;;;;;;14.80;4.28;;;;;18.20;100575.00;;;;10436029;27;20217;-80
2023/08/31 08:11:51;;;;;;;9.38;4.05;;;;;18.50;100575.00;;;;10402301;27;20201;-80
2023/08/31 08:16:52;;;;;;;16.60;4.82;;;;;18.40;100579.00;;;;10443992;27;20289;-81
2023/08/31 08:21:54;;;;;;;9.93;4.45;;;;;18.50;100578.00;;;;10458096;27;20212;-80
2023/08/31 08:26:56;;;;;;;8.30;4.10;;;;;18.90;100580.00;;;;10466142;27;20340;-81
2023/08/31 08:31:57;;;;;;;14.68;4.45;;;;;19.30;100591.00;;;;10440998;28;20209;-80
2023/08/31 08:36:58;;;;;;;11.65;4.60;;;;;19.90;100598.00;;;;10442575;27;20205;-80
2023/08/31 08:42:03;;;;;;;8.10;3.42;;;;;20.50;100610.00;;;;10438516;27;20197;-81
2023/08/31 08:47:06;;;;;;;7.78;3.65;;;;;20.90;100604.00;;;;10457819;27;20228;-81
2023/08/31 08:52:09;;;;;;;13.27;4.00;;;;;20.80;100614.00;;;;10425271;27;20291;-80
2023/08/31 08:57:10;;;;;;;8.18;3.47;;;;;21.20;100608.00;;;;10468033;27;20211;-80
2023/08/31 09:02:12;;;;;;;7.70;3.22;;;;;21.70;100620.00;;;;10465238;27;20208;-81
2023/08/31 09:07:13;;;;;;;9.50;3.70;;;;;22.00;100622.00;;;;10450120;27;20235;-81
2023/08/31 09:12:15;;;;;;;8.88;3.38;;;;;22.10;100613.00;;;;10451165;27;20233;-81
2023/08/31 09:17:16;;;;;;;10.00;3.33;;;;;22.10;100637.00;;;;10469073;27;20208;-81
2023/08/31 09:22:22;;;;;;;11.10;3.45;;;;;22.20;100629.00;;;;10467102;27;20211;-81
2023/08/31 09:27:24;;;;;;;8.80;3.28;;;;;22.70;100635.00;;;;10468730;27;21918;-81
2023/08/31 09:32:26;;;;;;;7.32;3.65;;;;;22.90;100637.00;;;;10451057;27;20316;-81
2023/08/31 09:37:27;;;;;;;9.98;3.22;;;;;23.00;100632.00;;;;10446170;27;20200;-81
2023/08/31 09:42:38;;;;;;;5.90;3.20;;;;;22.10;100638.00;;;;10443300;27;20807;-81
2023/08/31 09:47:41;;;;;;;6.32;3.13;;;;;22.70;100635.00;;;;10446478;28;20220;-82
2023/08/31 09:52:44;;;;;;;5.38;2.80;;;;;23.00;100629.00;;;;10451823;27;20219;-81
2023/08/31 09:57:48;;;;;;;9.68;3.00;;;;;23.30;100625.00;;;;10471599;27;20250;-81
2023/08/31 10:03:05;;;;;;;9.15;3.22;;;;;24.10;100628.00;;;;10439151;27;20960;-81
2023/08/31 10:08:07;;;;;;;8.02;3.22;;;;;23.90;100617.00;;;;10428459;27;20213;-81
2023/08/31 10:13:08;;;;;;;4.13;2.65;;;;;23.90;100617.00;;;;10432828;27;20371;-82
2023/08/31 10:18:10;;;;;;;7.25;2.85;;;;;23.50;100635.00;;;;10446652;27;20825;-81
2023/08/31 10:23:11;;;;;;;6.35;2.85;;;;;24.40;100621.00;;;;10431844;27;21328;-81
2023/08/31 10:28:17;;;;;;;4.50;2.10;;;;;24.20;100631.00;;;;10432754;28;20924;-80
2023/08/31 10:33:22;;;;;;;7.55;2.83;;;;;23.70;100622.00;;;;10434262;27;20856;-81
2023/08/31 10:38:26;;;;;;;5.35;2.50;;;;;24.10;100634.00;;;;10430330;27;20211;-80
2023/08/31 10:43:27;;;;;;;5.63;2.25;;;;;24.80;100639.00;;;;10446488;27;20244;-79
2023/08/31 10:48:50;;;;;;;3.50;2.30;;;;;25.50;100619.00;;;;10470410;27;21923;-80
2023/08/31 10:54:03;;;;;;;5.15;2.05;;;;;25.20;100621.00;;;;10467546;27;20417;-80
2023/08/31 10:59:05;;;;;;;6.10;2.03;;;;;25.10;100619.00;;;;10422465;27;20559;-80
2023/08/31 11:04:12;;;;;;;7.70;2.85;;;;;25.80;100610.00;;;;10426480;28;20236;-80
2023/08/31 11:09:21;;;;;;;5.78;2.55;;;;;26.10;100593.00;;;;10460954;27;20570;-81
2023/08/31 11:14:23;;;;;;;5.70;2.38;;;;;26.80;100609.00;;;;10463014;27;20199;-81
2023/08/31 11:19:25;;;;;;;7.07;2.33;;;;;26.30;100616.00;;;;10449835;27;20204;-80
2023/08/31 11:24:26;;;;;;;7.20;2.95;;;;;24.70;100619.00;;;;10466194;27;20200;-81
2023/08/31 11:29:28;;;;;;;4.15;1.98;;;;;23.20;100613.00;;;;10467637;27;20224;-80
2023/08/31 11:34:30;;;;;;;8.27;2.58;;;;;23.40;100611.00;;;;10431699;27;20201;-81
2023/08/31 11:39:32;;;;;;;3.65;1.95;;;;;23.40;100615.00;;;;10445083;28;20204;-80
2023/08/31 11:44:34;;;;;;;6.53;1.83;;;;;24.60;100614.00;;;;10445243;27;20209;-80
2023/08/31 11:49:35;;;;;;;3.97;1.90;;;;;25.90;100614.00;;;;10442829;27;20835;-79
2023/08/31 11:54:39;;;;;;;3.47;2.20;;;;;27.20;100613.00;;;;10440767;27;20262;-79
2023/08/31 11:59:40;;;;;;;8.27;2.33;;;;;27.80;100609.00;;;;10467615;27;20256;-80
2023/08/31 12:04:46;;;;;;;4.50;2.00;;;;;28.50;100603.00;;;;10458300;27;20209;-80
2023/08/31 12:09:48;;;;;;;4.72;1.95;;;;;27.40;100615.00;;;;10428462;27;20432;-80
2023/08/31 12:14:53;;;;;;;4.15;1.92;;;;;25.90;100615.00;;;;10432737;27;20935;-80
2023/08/31 12:20:04;;;;;;;4.50;1.77;;;;;24.00;100620.00;;;;10407690;27;20544;-78
2023/08/31 12:25:05;;;;;;;5.57;1.88;;;;;22.40;100628.00;;;;10446032;27;20344;-78
2023/08/31 12:30:07;;;;;;;3.80;1.90;;;;;21.50;100612.00;;;;10426592;27;20218;-79
2023/08/31 12:35:09;;;;;;;6.38;1.80;;;;;21.60;100621.00;;;;10433645;27;20623;-78
2023/08/31 12:40:11;;;;;;;5.20;1.73;;;;;21.90;100623.00;;;;10453721;27;20829;-79
2023/08/31 12:45:12;;;;;;;6.60;1.95;;;;;22.00;100618.00;;;;10422439;27;20246;-79
2023/08/31 12:50:14;;;;;;;4.40;1.42;;;;;22.30;100618.00;;;;10446669;27;20901;-79
2023/08/31 12:55:16;;;;;;;5.88;1.98;;;;;22.30;100624.00;;;;10433163;27;20208;-78
2023/08/31 13:00:18;;;;;;;8.55;2.13;;;;;22.30;100616.00;;;;10415730;27;20220;-79
2023/08/31 13:05:20;;;;;;;8.02;1.80;;;;;22.40;100614.00;;;;10414395;28;20303;-79
2023/08/31 13:10:22;;;;;;;6.88;1.90;;;;;22.30;100610.00;;;;10428499;27;20225;-79
2023/08/31 13:15:23;;;;;;;5.60;1.73;;;;;22.80;100597.00;;;;10431126;27;20211;-80
2023/08/31 13:20:25;;;;;;;3.90;1.48;;;;;23.90;100580.00;;;;10413864;27;20610;-79
2023/08/31 13:25:26;;;;;;;4.65;1.65;;;;;24.70;100583.00;;;;10429606;28;20796;-79
2023/08/31 13:30:29;;;;;;;4.55;1.63;;;;;25.00;100582.00;;;;10449956;27;20802;-78
2023/08/31 13:35:34;;;;;;;5.13;1.40;;;;;25.30;100575.00;;;;10431001;27;20196;-79
2023/08/31 13:40:36;;;;;;;7.68;1.90;;;;;25.90;100573.00;;;;10447864;27;21309;-79
2023/08/31 13:45:38;;;;;;;6.53;2.00;;;;;25.60;100577.00;;;;10433881;27;20232;-79
2023/08/31 13:50:39;;;;;;;5.70;2.17;;;;;25.20;100574.00;;;;10445831;27;20208;-78
2023/08/31 13:55:40;;;;;;;5.72;1.70;;;;;25.00;100580.00;;;;10431029;27;20243;-80
2023/08/31 14:00:42;;;;;;;4.30;1.83;;;;;24.50;100588.00;;;;10428810;27;20227;-79
2023/08/31 14:05:47;;;;;;;4.00;1.88;;;;;24.00;100587.00;;;;10448403;27;20771;-78
2023/08/31 14:10:48;;;;;;;8.38;2.30;;;;;24.00;100597.00;;;;10422117;28;20212;-79
2023/08/31 14:15:50;;;;;;;9.15;2.70;;;;;24.10;100578.00;;;;10450729;28;20212;-80
2023/08/31 14:20:51;;;;;;;8.80;2.05;;;;;24.00;100581.00;;;;10417136;27;20223;-79
2023/08/31 14:25:53;;;;;;;5.45;2.10;;;;;23.80;100586.00;;;;10437717;27;20232;-79
2023/08/31 14:30:54;;;;;;;5.18;1.85;;;;;23.80;100570.00;;;;10401917;28;20664;-80
2023/08/31 14:35:55;;;;;;;2.95;1.90;;;;;24.10;100571.00;;;;10438107;27;20228;-79
2023/08/31 14:40:57;;;;;;;7.45;1.88;;;;;24.00;100589.00;;;;10438069;28;20321;-81
2023/08/31 14:46:00;;;;;;;5.82;2.42;;;;;23.90;100596.00;;;;10437950;27;20422;-79
2023/08/31 14:51:02;;;;;;;5.18;2.30;;;;;23.50;100604.00;;;;10419987;27;20205;-80
2023/08/31 14:56:03;;;;;;;4.80;2.72;;;;;23.00;100599.00;;;;10449671;27;20209;-80
2023/08/31 15:01:05;;;;;;;8.10;2.30;;;;;22.90;100605.00;;;;10429101;27;20255;-80
2023/08/31 15:06:06;;;;;;;6.88;2.47;;;;;23.10;100611.00;;;;10447033;27;20841;-80
2023/08/31 15:11:08;;;;;;;7.32;2.47;;;;;22.90;100602.00;;;;10454164;27;20218;-80
2023/08/31 15:16:09;;;;;;;8.48;2.67;;;;;22.50;100605.00;;;;10467805;27;20292;-80
2023/08/31 15:21:11;;;;;;;7.15;2.65;;;;;22.30;100606.00;;;;10469182;27;20224;-79
2023/08/31 15:26:14;;;;;;;11.43;3.20;;;;;22.30;100606.00;;;;10454470;27;20235;-81
2023/08/31 15:31:16;;;;;;;6.10;2.72;;;;;22.10;100603.00;;;;10434640;27;20204;-79
2023/08/31 15:36:17;;;;;;;7.78;2.80;;;;;22.10;100612.00;;;;10442224;27;20212;-79
2023/08/31 15:41:18;;;;;;;5.78;2.70;;;;;21.80;100627.00;;;;10428458;27;20670;-79
2023/08/31 15:46:20;;;;;;;8.32;3.20;;;;;21.30;100625.00;;;;10446938;27;20746;-79
2023/08/31 15:51:21;;;;;;;6.40;2.40;;;;;21.10;100623.00;;;;10421587;27;20208;-80
2023/08/31 15:56:23;;;;;;;9.90;3.10;;;;;20.90;100620.00;;;;10410970;27;20200;-81
2023/08/31 16:01:24;;;;;;;6.00;2.58;;;;;20.80;100626.00;;;;10442716;27;20263;-81
2023/08/31 16:06:26;;;;;;;9.55;2.65;;;;;20.40;100627.00;;;;10406801;27;21143;-80
2023/08/31 16:11:27;;;;;;;7.20;2.65;;;;;20.10;100636.00;;;;10423101;27;20227;-79
2023/08/31 16:16:28;;;;;;;7.90;2.40;;;;;19.90;100637.00;;;;10444906;27;20745;-80
2023/08/31 16:21:29;;;;;;;6.85;2.83;;;;;19.90;100627.00;;;;10442937;27;20555;-79
2023/08/31 16:26:30;;;;;;;7.00;2.47;;;;;19.70;100630.00;;;;10443505;27;20235;-80
2023/08/31 16:31:32;;;;;;;10.68;2.90;;;;;19.50;100637.00;;;;10427358;27;20336;-79
2023/08/31 16:36:34;;;;;;;8.07;2.90;;;;;19.30;100642.00;;;;10426936;27;20429;-80
2023/08/31 16:41:35;;;;;;;9.68;3.33;;;;;19.00;100631.00;;;;10426887;27;21275;-80
2023/08/31 16:46:36;;;;;;;6.97;2.63;;;;;18.80;100640.00;;;;10443032;28;20255;-80
2023/08/31 16:51:39;;;;;;;6.25;3.15;;;;;18.60;100639.00;;;;10442050;27;20694;-80
2023/08/31 16:56:41;;;;;;;10.18;2.75;;;;;18.50;100648.00;;;;10424558;27;20520;-78
2023/08/31 17:01:42;;;;;;;13.43;3.20;;;;;18.30;100649.00;;;;10421263;27;20200;-80
2023/08/31 17:06:44;;;;;;;9.65;3.28;;;;;18.20;100659.00;;;;10445855;27;20852;-80
2023/08/31 17:11:45;;;;;;;9.82;3.30;;;;;18.10;100659.00;;;;10445549;27;20214;-79
2023/08/31 17:16:46;;;;;;;9.80;3.03;;;;;17.90;100660.00;;;;10441246;27;20229;-79
2023/08/31 17:21:48;;;;;;;9.75;3.00;;;;;17.80;100653.00;;;;10470650;27;20848;-82
2023/08/31 17:26:49;;;;;;;5.60;2.67;;;;;17.50;100653.00;;;;10437600;27;20204;-79
2023/08/31 17:31:50;;;;;;;7.53;2.72;;;;;17.30;100660.00;;;;10440900;28;20200;-80
2023/08/31 17:36:52;;;;;;;6.43;2.47;;;;;17.20;100655.00;;;;10427026;27;20220;-77
2023/08/31 17:41:53;;;;;;;6.50;2.75;;;;;17.10;100655.00;;;;10437887;27;20318;-80
2023/08/31 17:46:55;;;;;;;8.05;2.70;;;;;17.00;100655.00;;;;10449615;27;20197;-78
2023/08/31 17:51:57;;;;;;;9.60;2.88;;;;;16.80;100657.00;;;;10442573;27;20284;-80
2023/08/31 17:56:59;;;;;;;8.65;2.80;;;;;16.60;100652.00;;;;10441303;27;20236;-79
2023/08/31 18:02:00;;;;;;;9.70;3.00;;;;;16.40;100670.00;;;;10456097;27;20208;-79
2023/08/31 18:07:02;;;;;;;6.85;3.38;;;;;16.30;100655.00;;;;10456884;27;20319;-79
2023/08/31 18:12:08;;;;;;;11.40;3.00;;;;;16.20;100648.00;;;;10439335;27;20284;-78
2023/08/31 18:17:09;;;;;;;10.90;3.13;;;;;16.10;100656.00;;;;10437180;27;21886;-78
2023/08/31 18:22:10;;;;;;;10.73;2.88;;;;;16.00;100655.00;;;;10437202;27;20291;-78
2023/08/31 18:27:12;;;;;;;9.93;3.50;;;;;16.00;100667.00;;;;10450949;27;20756;-79
2023/08/31 18:32:13;;;;;;;9.82;3.00;;;;;15.90;100669.00;;;;10469258;27;20218;-79
2023/08/31 18:37:14;;;;;;;7.75;3.85;;;;;15.80;100660.00;;;;10423835;27;20216;-79
2023/08/31 18:42:17;;;;;;;8.73;3.55;;;;;15.80;100655.00;;;;10451288;27;20207;-79
2023/08/31 18:47:18;;;;;;;11.43;4.18;;;;;15.80;100653.00;;;;10453097;28;20331;-79
2023/08/31 18:52:19;;;;;;;9.35;3.95;;;;;15.80;100660.00;;;;10467589;27;20216;-78
2023/08/31 18:57:21;;;;;;;12.63;3.65;;;;;15.70;100678.00;;;;10468444;27;20196;-77
2023/08/31 19:02:22;;;;;;;8.50;3.45;;;;;15.70;100677.00;;;;10436868;27;20208;-78
2023/08/31 19:07:24;;;;;;;8.35;3.47;;;;;15.60;100681.00;;;;10449322;27;20243;-80
2023/08/31 19:12:25;;;;;;;9.98;3.70;;;;;15.50;100674.00;;;;10419240;27;21686;-79
2023/08/31 19:17:27;;;;;;;12.73;3.53;;;;;15.40;100672.00;;;;10437529;27;20981;-80
2023/08/31 19:22:28;;;;;;;13.63;4.30;;;;;15.30;100673.00;;;;10439617;27;20279;-79
2023/08/31 19:27:30;;;;;;;13.32;3.72;;;;;15.30;100675.00;;;;10435240;27;20246;-79
2023/08/31 19:32:31;;;;;;;13.75;4.60;;;;;15.30;100675.00;;;;10431805;27;20232;-80
2023/08/31 19:37:33;;;;;;;12.75;5.13;;;;;15.30;100663.00;;;;10447866;27;20298;-78
2023/08/31 19:42:34;;;;;;;10.25;4.15;;;;;15.40;100666.00;;;;10424520;27;20258;-78
2023/08/31 19:47:35;;;;;;;7.90;4.03;;;;;15.40;100662.00;;;;10408277;27;21031;-79
2023/08/31 19:52:37;;;;;;;10.00;4.13;;;;;15.40;100666.00;;;;10412143;27;20296;-80
2023/08/31 19:57:38;;;;;;;9.60;4.68;;;;;15.40;100662.00;;;;10411626;27;20204;-79
2023/08/31 20:02:40;;;;;;;9.02;4.50;;;;;15.40;100655.00;;;;10412821;28;20234;-80
2023/08/31 20:07:41;;;;;;;9.88;4.72;;;;;15.40;100656.00;;;;10449267;27;20219;-80
2023/08/31 20:12:43;;;;;;;10.75;4.60;;;;;15.40;100651.00;;;;10432567;27;21165;-79
2023/08/31 20:17:44;;;;;;;8.60;4.63;;;;;15.40;100653.00;;;;10448744;27;20222;-79
2023/08/31 20:22:46;;;;;;;7.47;3.85;;;;;15.40;100647.00;;;;10432477;28;20345;-79
2023/08/31 20:27:47;;;;;;;10.18;4.53;;;;;15.40;100654.00;;;;10416558;27;20326;-79
2023/08/31 20:32:49;;;;;;;9.02;4.18;;;;;15.30;100657.00;;;;10447848;28;20217;-79
2023/08/31 20:37:50;;;;;;;11.38;4.00;;;;;15.20;100642.00;;;;10434629;27;20689;-81
2023/08/31 20:42:53;;;;;;;7.53;3.78;;;;;15.20;100636.00;;;;10434308;27;20347;-79
2023/08/31 20:47:55;;;;;;;7.55;3.65;;;;;15.20;100655.00;;;;10421187;27;20649;-78
2023/08/31 20:52:57;;;;;;;9.40;3.25;;;;;15.10;100651.00;;;;10440875;27;20205;-80
2023/08/31 20:57:59;;;;;;;14.40;4.38;;;;;15.00;100655.00;;;;10445038;27;20208;-79
2023/08/31 21:03:00;;;;;;;7.43;3.25;;;;;14.90;100649.00;;;;10467373;28;20212;-80
2023/08/31 21:08:02;;;;;;;5.60;2.95;;;;;14.80;100645.00;;;;10450080;27;20224;-78
2023/08/31 21:13:04;;;;;;;7.32;3.47;;;;;14.80;100633.00;;;;10452911;27;20215;-79
2023/08/31 21:18:05;;;;;;;10.32;3.67;;;;;14.70;100623.00;;;;10457025;27;20200;-79
2023/08/31 21:23:11;;;;;;;7.35;4.03;;;;;14.70;100620.00;;;;10444558;27;20327;-79
2023/08/31 21:28:12;;;;;;;6.32;3.33;;;;;14.60;100626.00;;;;10456928;27;20719;-79
2023/08/31 21:33:14;;;;;;;8.05;4.22;;;;;14.50;100626.00;;;;10446667;27;20287;-78
2023/08/31 21:38:16;;;;;;;9.18;3.90;;;;;14.50;100646.00;;;;10423781;27;20217;-79
2023/08/31 21:43:17;;;;;;;7.32;4.15;;;;;14.50;100653.00;;;;10425186;27;21138;-78
2023/08/31 21:48:18;;;;;;;9.38;4.82;;;;;14.50;100650.00;;;;10460274;27;20228;-79
2023/08/31 21:53:20;;;;;;;9.70;4.00;;;;;14.50;100641.00;;;;10392906;27;20208;-78
2023/08/31 21:58:21;;;;;;;12.23;4.90;;;;;14.60;100638.00;;;;10421733;27;20273;-79
2023/08/31 22:03:22;;;;;;;11.30;5.03;;;;;14.60;100634.00;;;;10439417;27;20215;-80
2023/08/31 22:08:24;;;;;;;8.73;5.00;;;;;14.60;100637.00;;;;10438005;28;20239;-79
2023/08/31 22:13:26;;;;;;;10.85;4.60;;;;;14.60;100636.00;;;;10440565;27;20204;-79
2023/08/31 22:18:28;;;;;;;11.00;4.40;;;;;14.60;100636.00;;;;10456335;27;20205;-79
2023/08/31 22:23:29;;;;;;;9.27;4.55;;;;;14.70;100634.00;;;;10453284;27;20212;-80
2023/08/31 22:28:31;;;;;;;8.07;4.80;;;;;14.70;100631.00;;;;10470681;27;20220;-80
2023/08/31 22:33:32;;;;;;;10.38;4.80;;;;;14.70;100624.00;;;;10450500;27;20200;-80
2023/08/31 22:38:34;;;;;;;7.53;4.88;;;;;14.60;100629.00;;;;10437468;27;20200;-79
2023/08/31 22:43:40;;;;;;;6.38;4.10;;;;;14.50;100627.00;;;;10421921;27;20204;-80
2023/08/31 22:48:43;;;;;;;7.20;4.70;;;;;14.50;100623.00;;;;10420881;27;20224;-80
2023/08/31 22:53:44;;;;;;;6.75;4.60;;;;;14.50;100621.00;;;;10405088;27;20210;-80
2023/08/31 22:58:46;;;;;;;8.45;4.45;;;;;14.50;100610.00;;;;10436742;27;20368;-79
2023/08/31 23:03:47;;;;;;;5.90;3.70;;;;;14.50;100612.00;;;;10420296;27;20326;-80
2023/08/31 23:08:48;;;;;;;6.72;3.90;;;;;14.40;100609.00;;;;10417589;27;20236;-79
2023/08/31 23:13:50;;;;;;;7.60;4.43;;;;;14.50;100620.00;;;;10400811;27;21053;-80
2023/08/31 23:18:52;;;;;;;6.15;3.47;;;;;14.50;100613.00;;;;10437571;27;20209;-80
2023/08/31 23:23:53;;;;;;;9.45;3.50;;;;;14.50;100605.00;;;;10418180;27;20281;-81
2023/08/31 23:28:54;;;;;;;5.23;3.47;;;;;14.50;100603.00;;;;10418097;28;21023;-80
2023/08/31 23:33:55;;;;;;;7.47;3.70;;;;;14.50;100591.00;;;;10435445;27;20225;-80
2023/08/31 23:38:57;;;;;;;6.82;4.28;;;;;14.50;100602.00;;;;10417996;27;20205;-79
2023/08/31 23:43:58;;;;;;;10.85;4.53;;;;;14.50;100603.00;;;;10420623;27;20235;-80
2023/08/31 23:49:00;;;;;;;7.53;4.07;;;;;14.50;100592.00;;;;10436745;27;20228;-79
2023/08/31 23:54:01;;;;;;;8.15;4.38;;;;;14.50;100597.00;;;;10436428;27;20481;-79
2023/08/31 23:59:03;;;;;;;7.65;4.10;;;;;14.50;100591.00;;;;10452036;27;20230;-79
